createdAt,value
2023-04-17T00:00:54.985Z,9.2947
2023-04-17T00:01:56.650Z,9.2970
2023-04-17T00:02:58.379Z,9.2935
2023-04-17T00:04:00.117Z,9.2853
2023-04-17T00:05:01.644Z,9.2768
2023-04-17T00:06:03.206Z,9.2579
2023-04-17T00:07:04.851Z,9.2379
2023-04-17T00:08:06.527Z,9.2313
2023-04-17T00:09:08.168Z,9.2213
2023-04-17T00:10:09.891Z,9.2213
2023-04-17T00:11:11.405Z,9.2250
2023-04-17T00:12:13.068Z,9.2320
2023-04-17T00:13:14.728Z,9.2375
2023-04-17T00:14:16.347Z,9.2475
2023-04-17T00:15:18.015Z,9.2578
2023-04-17T00:16:19.662Z,9.2647
2023-04-17T00:17:21.331Z,9.2647
2023-04-17T00:18:22.908Z,9.2583
2023-04-17T00:19:24.545Z,9.2543
2023-04-17T00:20:26.247Z,9.2512
2023-04-17T00:21:27.845Z,9.2412
2023-04-17T00:22:29.489Z,9.2321
2023-04-17T00:23:31.145Z,9.2277
2023-04-17T00:24:32.760Z,9.2231
2023-04-17T00:25:34.426Z,9.2220
2023-04-17T00:26:36.041Z,9.2285
2023-04-17T00:27:37.720Z,9.2355
2023-04-17T00:28:39.326Z,9.2406
2023-04-17T00:29:41.003Z,9.2417
2023-04-17T00:30:42.664Z,9.2446
2023-04-17T00:31:44.315Z,9.2487
2023-04-17T00:32:45.960Z,9.2474
2023-04-17T00:33:47.549Z,9.2486
2023-04-17T00:34:49.188Z,9.2543
2023-04-17T00:35:50.905Z,9.2552
2023-04-17T00:36:52.470Z,9.2527
2023-04-17T00:37:54.112Z,9.2553
2023-04-17T00:38:55.780Z,9.2555
2023-04-17T00:39:57.409Z,9.2567
2023-04-17T00:40:59.091Z,9.2576
2023-04-17T00:42:00.735Z,9.2572
2023-04-17T00:43:02.352Z,9.2482
2023-04-17T00:44:03.975Z,9.2392
2023-04-17T00:45:05.651Z,9.2226
2023-04-17T00:46:07.303Z,9.2079
2023-04-17T00:47:08.921Z,9.1896
2023-04-17T00:48:10.534Z,9.1797
2023-04-17T00:49:12.313Z,9.1551
2023-04-17T00:50:13.797Z,9.1410
2023-04-17T00:51:15.507Z,9.1339
2023-04-17T00:52:17.069Z,9.1173
2023-04-17T00:53:18.747Z,9.1059
2023-04-17T00:54:20.369Z,9.1077
2023-04-17T00:55:22.011Z,9.1149
2023-04-17T00:56:23.682Z,9.1245
2023-04-17T00:57:25.327Z,9.1344
2023-04-17T00:58:26.945Z,9.1247
2023-04-17T00:59:28.568Z,9.1199
2023-04-17T01:00:30.238Z,9.1444
2023-04-17T01:01:31.959Z,9.1619
2023-04-17T01:02:33.670Z,9.1715
2023-04-17T01:03:35.414Z,9.1833
2023-04-17T01:04:36.801Z,9.1938
2023-04-17T01:05:38.493Z,9.1950
2023-04-17T01:06:40.119Z,9.1917
2023-04-17T01:07:41.763Z,9.1847
2023-04-17T01:08:43.379Z,9.1777
2023-04-17T01:09:44.987Z,9.1762
2023-04-17T01:10:46.645Z,9.1767
2023-04-17T01:11:48.290Z,9.1698
2023-04-17T01:12:49.981Z,9.1446
2023-04-17T01:13:51.665Z,9.1261
2023-04-17T01:14:53.340Z,9.1202
2023-04-17T01:15:54.997Z,9.1226
2023-04-17T01:16:56.678Z,9.1274
2023-04-17T01:17:58.311Z,9.1388
2023-04-17T01:18:59.901Z,9.1452
2023-04-17T01:20:01.541Z,9.1490
2023-04-17T01:21:03.184Z,9.1511
2023-04-17T01:22:04.856Z,9.1490
2023-04-17T01:23:06.483Z,9.1475
2023-04-17T01:24:08.084Z,9.1498
2023-04-17T01:25:09.779Z,9.1485
2023-04-17T01:26:11.381Z,9.1527
2023-04-17T01:27:13.090Z,9.1573
2023-04-17T01:28:14.682Z,9.1593
2023-04-17T01:29:16.326Z,9.1519
2023-04-17T01:30:17.951Z,9.1468
2023-04-17T01:31:19.651Z,9.1460
2023-04-17T01:32:21.281Z,9.1442
2023-04-17T01:33:22.882Z,9.1431
2023-04-17T01:34:24.527Z,9.1461
2023-04-17T01:35:26.167Z,9.1468
2023-04-17T01:36:27.805Z,9.1525
2023-04-17T01:37:29.504Z,9.1484
2023-04-17T01:38:31.061Z,9.1389
2023-04-17T01:39:32.729Z,9.1151
2023-04-17T01:40:34.377Z,9.0922
2023-04-17T01:41:36.025Z,9.0751
2023-04-17T01:42:37.696Z,9.0664
2023-04-17T01:43:39.356Z,9.0578
2023-04-17T01:44:40.946Z,9.0537
2023-04-17T01:45:42.578Z,9.0501
2023-04-17T01:46:44.278Z,9.0418
2023-04-17T01:47:46.462Z,9.0400
2023-04-17T01:48:47.550Z,9.0387
2023-04-17T01:49:49.193Z,9.0410
2023-04-17T01:50:50.844Z,9.0458
2023-04-17T01:51:52.517Z,9.0448
2023-04-17T01:52:54.171Z,9.0282
2023-04-17T01:53:55.752Z,9.0139
2023-04-17T01:54:57.386Z,9.0112
2023-04-17T01:55:59.020Z,9.0147
2023-04-17T01:57:00.652Z,9.0237
2023-04-17T01:58:02.429Z,9.0334
2023-04-17T01:59:03.973Z,9.0448
2023-04-17T02:00:05.630Z,9.0557
2023-04-17T02:01:07.233Z,9.0694
2023-04-17T02:02:09.067Z,9.0787
2023-04-17T02:03:10.629Z,9.0825
2023-04-17T02:04:12.288Z,9.0866
2023-04-17T02:05:13.786Z,9.0947
2023-04-17T02:06:15.440Z,9.1065
2023-04-17T02:07:17.068Z,9.1125
2023-04-17T02:08:18.783Z,9.1116
2023-04-17T02:09:20.351Z,9.1021
2023-04-17T02:10:21.983Z,9.0993
2023-04-17T02:11:23.650Z,9.0989
2023-04-17T02:12:25.306Z,9.0950
2023-04-17T02:13:26.995Z,9.0893
2023-04-17T02:14:28.550Z,9.0840
2023-04-17T02:15:30.224Z,9.0791
2023-04-17T02:16:31.908Z,9.0752
2023-04-17T02:17:33.520Z,9.0768
2023-04-17T02:18:35.231Z,9.0842
2023-04-17T02:19:36.760Z,9.0907
2023-04-17T02:20:38.393Z,9.0984
2023-04-17T02:21:40.037Z,9.1009
2023-04-17T02:22:41.687Z,9.0955
2023-04-17T02:23:43.374Z,9.0960
2023-04-17T02:24:44.953Z,9.1030
2023-04-17T02:25:46.583Z,9.1094
2023-04-17T02:26:48.246Z,9.1170
2023-04-17T02:27:49.872Z,9.1254
2023-04-17T02:28:51.556Z,9.1387
2023-04-17T02:29:53.149Z,9.1497
2023-04-17T02:30:54.972Z,9.1558
2023-04-17T02:31:56.566Z,9.1577
2023-04-17T02:32:58.150Z,9.1638
2023-04-17T02:33:59.759Z,9.1660
2023-04-17T02:35:01.343Z,9.1705
2023-04-17T02:36:02.995Z,9.1726
2023-04-17T02:37:04.652Z,9.1756
2023-04-17T02:38:06.278Z,9.1793
2023-04-17T02:39:07.946Z,9.1791
2023-04-17T02:40:09.561Z,9.1773
2023-04-17T02:41:11.171Z,9.1748
2023-04-17T02:42:12.861Z,9.1662
2023-04-17T02:43:14.472Z,9.1600
2023-04-17T02:44:16.166Z,9.1576
2023-04-17T02:45:17.779Z,9.1549
2023-04-17T02:46:19.440Z,9.1442
2023-04-17T02:47:21.204Z,9.1309
2023-04-17T02:48:22.580Z,9.1243
2023-04-17T02:49:24.270Z,9.1112
2023-04-17T02:50:25.944Z,9.0912
2023-04-17T02:51:27.580Z,9.0750
2023-04-17T02:52:29.221Z,9.0664
2023-04-17T02:53:30.859Z,9.0606
2023-04-17T02:54:32.584Z,9.0551
2023-04-17T02:55:34.269Z,9.0511
2023-04-17T02:56:35.721Z,9.0468
2023-04-17T02:57:37.403Z,9.0374
2023-04-17T02:58:38.999Z,9.0254
2023-04-17T02:59:40.837Z,9.0138
2023-04-17T03:00:42.335Z,9.0029
2023-04-17T03:01:43.968Z,8.9901
2023-04-17T03:02:45.709Z,8.9766
2023-04-17T03:03:47.272Z,8.9595
2023-04-17T03:04:48.887Z,8.9511
2023-04-17T03:05:50.485Z,8.9497
2023-04-17T03:06:52.375Z,8.9605
2023-04-17T03:07:53.950Z,8.9704
2023-04-17T03:08:55.460Z,8.9788
2023-04-17T03:09:57.113Z,8.9870
2023-04-17T03:10:58.694Z,8.9878
2023-04-17T03:12:00.336Z,8.9844
2023-04-17T03:13:02.000Z,8.9872
2023-04-17T03:14:03.634Z,8.9966
2023-04-17T03:15:06.417Z,9.0144
2023-04-17T03:16:06.994Z,9.0253
2023-04-17T03:17:08.589Z,9.0337
2023-04-17T03:18:10.225Z,9.0415
2023-04-17T03:19:12.091Z,9.0340
2023-04-17T03:20:13.519Z,8.9955
2023-04-17T03:21:15.132Z,8.9637
2023-04-17T03:22:16.797Z,8.9487
2023-04-17T03:23:18.426Z,8.9428
2023-04-17T03:24:20.069Z,8.9375
2023-04-17T03:25:21.732Z,8.9186
2023-04-17T03:26:23.343Z,8.8961
2023-04-17T03:27:25.005Z,8.8782
2023-04-17T03:28:26.646Z,8.8586
2023-04-17T03:29:28.285Z,8.8461
2023-04-17T03:30:29.986Z,8.8343
2023-04-17T03:31:32.223Z,8.8292
2023-04-17T03:32:33.346Z,8.8307
2023-04-17T03:33:34.946Z,8.8249
2023-04-17T03:34:36.562Z,8.8025
2023-04-17T03:35:38.247Z,8.7921
2023-04-17T03:36:39.825Z,8.7871
2023-04-17T03:37:41.469Z,8.7865
2023-04-17T03:38:43.125Z,8.7963
2023-04-17T03:39:44.779Z,8.8050
2023-04-17T03:40:46.489Z,8.8164
2023-04-17T03:41:48.048Z,8.8298
2023-04-17T03:42:49.706Z,8.8356
2023-04-17T03:43:51.361Z,8.8390
2023-04-17T03:44:53.016Z,8.8463
2023-04-17T03:45:54.764Z,8.8517
2023-04-17T03:46:56.338Z,8.8532
2023-04-17T03:47:57.941Z,8.8538
2023-04-17T03:48:59.967Z,8.8460
2023-04-17T03:50:01.234Z,8.8281
2023-04-17T03:51:02.969Z,8.8154
2023-04-17T03:52:04.501Z,8.8117
2023-04-17T03:53:06.151Z,8.8173
2023-04-17T03:54:07.799Z,8.8290
2023-04-17T03:55:09.498Z,8.8407
2023-04-17T03:56:11.174Z,8.8531
2023-04-17T03:57:12.731Z,8.8624
2023-04-17T03:58:14.391Z,8.8644
2023-04-17T03:59:15.993Z,8.8608
2023-04-17T04:00:17.583Z,8.8578
2023-04-17T04:01:19.297Z,8.8579
2023-04-17T04:02:20.939Z,8.8563
2023-04-17T04:03:22.623Z,8.8591
2023-04-17T04:04:24.341Z,8.8608
2023-04-17T04:05:25.828Z,8.8592
2023-04-17T04:06:27.401Z,8.8540
2023-04-17T04:07:29.180Z,8.8516
2023-04-17T04:08:30.679Z,8.8464
2023-04-17T04:09:32.342Z,8.8501
2023-04-17T04:10:33.962Z,8.8535
2023-04-17T04:11:35.617Z,8.8550
2023-04-17T04:12:37.281Z,8.8534
2023-04-17T04:13:38.877Z,8.8448
2023-04-17T04:14:41.776Z,8.8417
2023-04-17T04:15:42.193Z,8.8442
2023-04-17T04:16:43.814Z,8.8449
2023-04-17T04:17:45.469Z,8.8289
2023-04-17T04:18:47.081Z,8.8127
2023-04-17T04:19:48.731Z,8.8058
2023-04-17T04:20:50.376Z,8.8046
2023-04-17T04:21:52.034Z,8.7966
2023-04-17T04:22:53.743Z,8.7800
2023-04-17T04:23:55.312Z,8.7715
2023-04-17T04:24:56.960Z,8.7804
2023-04-17T04:25:58.614Z,8.7932
2023-04-17T04:27:00.278Z,8.8027
2023-04-17T04:28:01.881Z,8.8085
2023-04-17T04:29:03.479Z,8.8131
2023-04-17T04:30:05.258Z,8.8191
2023-04-17T04:31:06.870Z,8.8184
2023-04-17T04:32:08.410Z,8.8172
2023-04-17T04:33:10.076Z,8.8107
2023-04-17T04:34:11.720Z,8.8032
2023-04-17T04:35:13.438Z,8.7912
2023-04-17T04:36:15.141Z,8.7721
2023-04-17T04:37:16.719Z,8.7644
2023-04-17T04:38:18.359Z,8.7706
2023-04-17T04:39:20.039Z,8.7679
2023-04-17T04:40:21.545Z,8.7638
2023-04-17T04:41:23.219Z,8.7640
2023-04-17T04:42:24.840Z,8.7698
2023-04-17T04:43:26.491Z,8.7804
2023-04-17T04:44:28.111Z,8.7809
2023-04-17T04:45:29.767Z,8.7739
2023-04-17T04:46:31.516Z,8.7752
2023-04-17T04:47:33.078Z,8.7861
2023-04-17T04:48:34.690Z,8.7983
2023-04-17T04:49:36.359Z,8.8039
2023-04-17T04:50:37.993Z,8.8081
2023-04-17T04:51:39.671Z,8.8109
2023-04-17T04:52:41.311Z,8.8177
2023-04-17T04:53:42.939Z,8.8253
2023-04-17T04:54:44.574Z,8.8368
2023-04-17T04:55:46.211Z,8.8486
2023-04-17T04:56:47.916Z,8.8616
2023-04-17T04:57:49.510Z,8.8732
2023-04-17T04:58:51.156Z,8.8871
2023-04-17T04:59:52.815Z,8.9008
2023-04-17T05:00:54.584Z,8.9110
2023-04-17T05:01:56.183Z,8.9102
2023-04-17T05:02:57.859Z,8.8979
2023-04-17T05:03:59.466Z,8.8907
2023-04-17T05:05:01.129Z,8.8881
2023-04-17T05:06:02.642Z,8.8888
2023-04-17T05:07:04.385Z,8.8935
2023-04-17T05:08:05.942Z,8.9074
2023-04-17T05:09:07.601Z,8.9199
2023-04-17T05:10:09.247Z,8.9132
2023-04-17T05:11:10.962Z,8.9030
2023-04-17T05:12:12.541Z,8.8962
2023-04-17T05:13:14.152Z,8.8913
2023-04-17T05:14:15.780Z,8.8960
2023-04-17T05:15:17.423Z,8.9113
2023-04-17T05:16:19.167Z,8.9303
2023-04-17T05:17:20.955Z,8.9486
2023-04-17T05:18:22.505Z,8.9615
2023-04-17T05:19:24.140Z,8.9623
2023-04-17T05:20:25.762Z,8.9638
2023-04-17T05:21:28.744Z,8.9697
2023-04-17T05:22:29.104Z,8.9714
2023-04-17T05:23:30.684Z,8.9689
2023-04-17T05:24:32.366Z,8.9535
2023-04-17T05:25:33.962Z,8.9413
2023-04-17T05:26:35.634Z,8.9283
2023-04-17T05:27:37.384Z,8.9230
2023-04-17T05:28:38.913Z,8.9307
2023-04-17T05:29:40.540Z,8.9447
2023-04-17T05:30:42.192Z,8.9611
2023-04-17T05:31:43.832Z,8.9771
2023-04-17T05:32:45.492Z,8.9882
2023-04-17T05:33:47.139Z,8.9827
2023-04-17T05:34:48.706Z,8.9578
2023-04-17T05:35:50.340Z,8.9396
2023-04-17T05:36:51.988Z,8.9258
2023-04-17T05:37:53.657Z,8.9326
2023-04-17T05:38:55.263Z,8.9510
2023-04-17T05:39:56.900Z,8.9677
2023-04-17T05:40:58.573Z,8.9760
2023-04-17T05:42:00.180Z,8.9790
2023-04-17T05:43:01.856Z,8.9846
2023-04-17T05:44:03.509Z,8.9897
2023-04-17T05:45:05.091Z,8.9957
2023-04-17T05:46:06.786Z,8.9978
2023-04-17T05:47:08.385Z,8.9950
2023-04-17T05:48:10.087Z,8.9941
2023-04-17T05:49:11.918Z,8.9905
2023-04-17T05:50:13.299Z,8.9872
2023-04-17T05:51:14.941Z,8.9842
2023-04-17T05:52:16.495Z,8.9698
2023-04-17T05:53:18.181Z,8.9452
2023-04-17T05:54:19.925Z,8.9483
2023-04-17T05:55:21.500Z,8.9733
2023-04-17T05:56:23.132Z,8.9932
2023-04-17T05:57:24.841Z,9.0087
2023-04-17T05:58:26.438Z,9.0212
2023-04-17T05:59:28.069Z,9.0401
2023-04-17T06:00:29.707Z,9.0523
2023-04-17T06:01:31.418Z,9.0539
2023-04-17T06:02:33.087Z,9.0491
2023-04-17T06:03:34.815Z,9.0449
2023-04-17T06:04:36.449Z,9.0459
2023-04-17T06:05:38.033Z,9.0454
2023-04-17T06:06:39.569Z,9.0447
2023-04-17T06:07:41.165Z,9.0538
2023-04-17T06:08:42.822Z,9.0646
2023-04-17T06:09:44.404Z,9.0759
2023-04-17T06:10:46.140Z,9.0860
2023-04-17T06:11:47.712Z,9.0946
2023-04-17T06:12:49.323Z,9.1063
2023-04-17T06:13:51.064Z,9.1180
2023-04-17T06:14:52.629Z,9.1272
2023-04-17T06:15:54.257Z,9.1377
2023-04-17T06:16:55.926Z,9.1449
2023-04-17T06:17:57.592Z,9.1545
2023-04-17T06:18:59.261Z,9.1633
2023-04-17T06:20:00.809Z,9.1753
2023-04-17T06:21:02.529Z,9.1874
2023-04-17T06:22:04.123Z,9.1992
2023-04-17T06:23:05.730Z,9.2104
2023-04-17T06:24:07.327Z,9.2161
2023-04-17T06:25:08.932Z,9.2199
2023-04-17T06:26:10.582Z,9.2244
2023-04-17T06:27:12.201Z,9.2286
2023-04-17T06:28:13.901Z,9.2359
2023-04-17T06:29:15.557Z,9.2533
2023-04-17T06:30:17.107Z,9.2720
2023-04-17T06:31:18.789Z,9.2872
2023-04-17T06:32:20.459Z,9.3004
2023-04-17T06:33:23.112Z,9.3126
2023-04-17T06:34:23.746Z,9.3243
2023-04-17T06:35:25.355Z,9.3441
2023-04-17T06:36:27.011Z,9.3708
2023-04-17T06:37:28.627Z,9.4014
2023-04-17T06:38:30.441Z,9.4310
2023-04-17T06:39:31.978Z,9.4532
2023-04-17T06:40:33.527Z,9.4755
2023-04-17T06:41:35.187Z,9.4948
2023-04-17T06:42:36.843Z,9.5114
2023-04-17T06:43:38.618Z,9.5214
2023-04-17T06:44:40.143Z,9.5291
2023-04-17T06:45:41.762Z,9.5333
2023-04-17T06:46:43.394Z,9.5254
2023-04-17T06:47:45.073Z,9.5146
2023-04-17T06:48:46.696Z,9.5061
2023-04-17T06:49:48.335Z,9.5063
2023-04-17T06:50:49.927Z,9.5156
2023-04-17T06:51:51.579Z,9.5282
2023-04-17T06:52:53.206Z,9.5331
2023-04-17T06:53:54.843Z,9.5264
2023-04-17T06:54:56.540Z,9.5190
2023-04-17T06:55:58.123Z,9.5143
2023-04-17T06:56:59.739Z,9.5142
2023-04-17T06:58:01.409Z,9.5214
2023-04-17T06:59:03.247Z,9.5301
2023-04-17T07:00:04.708Z,9.5340
2023-04-17T07:01:06.333Z,9.5305
2023-04-17T07:02:07.991Z,9.5125
2023-04-17T07:03:09.688Z,9.4954
2023-04-17T07:04:11.300Z,9.4854
2023-04-17T07:05:12.972Z,9.4741
2023-04-17T07:06:15.415Z,9.4642
2023-04-17T07:07:16.274Z,9.4543
2023-04-17T07:08:17.887Z,9.4462
2023-04-17T07:09:19.514Z,9.4455
2023-04-17T07:10:21.256Z,9.4483
2023-04-17T07:11:22.825Z,9.4582
2023-04-17T07:12:24.437Z,9.4692
2023-04-17T07:13:26.117Z,9.4814
2023-04-17T07:14:27.776Z,9.4965
2023-04-17T07:15:29.468Z,9.4991
2023-04-17T07:16:31.108Z,9.4921
2023-04-17T07:17:32.689Z,9.4808
2023-04-17T07:18:34.328Z,9.4675
2023-04-17T07:19:35.920Z,9.4530
2023-04-17T07:20:37.586Z,9.4340
2023-04-17T07:21:39.249Z,9.4177
2023-04-17T07:22:40.862Z,9.4037
2023-04-17T07:23:42.525Z,9.4040
2023-04-17T07:24:44.128Z,9.4020
2023-04-17T07:25:45.855Z,9.3974
2023-04-17T07:26:47.463Z,9.3974
2023-04-17T07:27:49.081Z,9.4030
2023-04-17T07:28:50.756Z,9.4080
2023-04-17T07:29:52.395Z,9.4160
2023-04-17T07:30:54.053Z,9.4191
2023-04-17T07:31:55.693Z,9.4125
2023-04-17T07:32:57.333Z,9.4083
2023-04-17T07:33:58.932Z,9.4081
2023-04-17T07:35:00.516Z,9.3994
2023-04-17T07:36:02.336Z,9.3795
2023-04-17T07:37:03.847Z,9.3534
2023-04-17T07:38:05.473Z,9.3368
2023-04-17T07:39:07.084Z,9.3141
2023-04-17T07:40:08.731Z,9.2705
2023-04-17T07:41:10.436Z,9.2189
2023-04-17T07:42:12.021Z,9.1905
2023-04-17T07:43:13.677Z,9.1882
2023-04-17T07:44:15.285Z,9.1865
2023-04-17T07:45:16.965Z,9.1837
2023-04-17T07:46:18.628Z,9.1842
2023-04-17T07:47:20.360Z,9.1944
2023-04-17T07:48:21.877Z,9.2062
2023-04-17T07:49:23.561Z,9.2137
2023-04-17T07:50:25.222Z,9.2082
2023-04-17T07:51:26.921Z,9.2035
2023-04-17T07:52:28.517Z,9.2053
2023-04-17T07:53:30.140Z,9.2104
2023-04-17T07:54:31.790Z,9.2191
2023-04-17T07:55:33.536Z,9.2192
2023-04-17T07:56:35.041Z,9.2127
2023-04-17T07:57:36.655Z,9.2053
2023-04-17T07:58:38.306Z,9.2012
2023-04-17T07:59:39.946Z,9.1969
2023-04-17T08:00:41.550Z,9.2034
2023-04-17T08:01:43.276Z,9.2107
2023-04-17T08:02:45.087Z,9.2136
2023-04-17T08:03:46.737Z,9.2199
2023-04-17T08:04:48.239Z,9.2400
2023-04-17T08:05:49.901Z,9.2635
2023-04-17T08:06:51.521Z,9.2923
2023-04-17T08:07:53.001Z,9.3272
2023-04-17T08:08:54.631Z,9.3640
2023-04-17T08:09:56.266Z,9.3983
2023-04-17T08:10:57.941Z,9.4463
2023-04-17T08:11:59.599Z,9.4969
2023-04-17T08:13:01.245Z,9.5418
2023-04-17T08:14:02.833Z,9.5995
2023-04-17T08:15:04.538Z,9.6539
2023-04-17T08:16:06.167Z,9.7063
2023-04-17T08:17:07.926Z,9.7471
2023-04-17T08:18:09.526Z,9.7814
2023-04-17T08:19:11.289Z,9.8145
2023-04-17T08:20:12.736Z,9.8501
2023-04-17T08:21:14.357Z,9.9035
2023-04-17T08:22:16.028Z,9.9668
2023-04-17T08:23:17.618Z,10.0185
2023-04-17T08:24:20.000Z,10.0674
2023-04-17T08:25:20.908Z,10.1143
2023-04-17T08:26:22.549Z,10.1508
2023-04-17T08:27:24.244Z,10.1704
2023-04-17T08:28:26.044Z,10.1744
2023-04-17T08:29:27.489Z,10.1747
2023-04-17T08:30:29.115Z,10.1698
2023-04-17T08:31:30.779Z,10.1533
2023-04-17T08:32:32.429Z,10.1351
2023-04-17T08:33:34.022Z,10.1163
2023-04-17T08:34:35.716Z,10.0917
2023-04-17T08:35:37.327Z,10.0756
2023-04-17T08:36:38.923Z,10.0658
2023-04-17T08:37:40.630Z,10.0579
2023-04-17T08:38:42.234Z,10.0507
2023-04-17T08:39:43.912Z,10.0226
2023-04-17T08:40:45.498Z,9.9914
2023-04-17T08:41:47.521Z,9.9557
2023-04-17T08:42:48.824Z,9.9282
2023-04-17T08:43:50.447Z,9.9065
2023-04-17T08:44:52.077Z,9.9007
2023-04-17T08:45:54.065Z,9.9081
2023-04-17T08:46:55.367Z,9.9278
2023-04-17T08:47:57.038Z,9.9604
2023-04-17T08:48:58.592Z,9.9979
2023-04-17T08:50:00.243Z,10.0269
2023-04-17T08:51:02.006Z,10.0538
2023-04-17T08:52:03.603Z,10.0818
2023-04-17T08:53:05.305Z,10.1002
2023-04-17T08:54:06.976Z,10.1274
2023-04-17T08:55:08.551Z,10.1362
2023-04-17T08:56:10.157Z,10.1514
2023-04-17T08:57:11.796Z,10.1824
2023-04-17T08:58:13.431Z,10.2176
2023-04-17T08:59:15.096Z,10.2140
2023-04-17T09:00:16.749Z,10.1768
2023-04-17T09:01:18.432Z,10.1452
2023-04-17T09:02:20.135Z,10.1252
2023-04-17T09:03:21.836Z,10.1107
2023-04-17T09:04:23.465Z,10.1080
2023-04-17T09:05:24.930Z,10.1122
2023-04-17T09:06:26.563Z,10.1134
2023-04-17T09:07:28.127Z,10.0865
2023-04-17T09:08:29.783Z,10.0421
2023-04-17T09:09:31.391Z,10.0667
2023-04-17T09:10:33.349Z,10.1153
2023-04-17T09:11:34.688Z,10.1640
2023-04-17T09:12:36.334Z,10.2370
2023-04-17T09:13:37.996Z,10.3231
2023-04-17T09:14:39.584Z,10.4072
2023-04-17T09:15:41.343Z,10.4421
2023-04-17T09:16:42.853Z,10.4368
2023-04-17T09:17:44.625Z,10.4473
2023-04-17T09:18:46.170Z,10.4592
2023-04-17T09:19:47.785Z,10.4869
2023-04-17T09:20:49.481Z,10.5192
2023-04-17T09:21:51.122Z,10.5633
2023-04-17T09:22:52.777Z,10.6079
2023-04-17T09:23:54.446Z,10.6403
2023-04-17T09:24:57.614Z,10.6705
2023-04-17T09:25:57.716Z,10.6920
2023-04-17T09:26:59.357Z,10.7097
2023-04-17T09:28:00.955Z,10.7184
2023-04-17T09:29:02.633Z,10.7147
2023-04-17T09:30:04.264Z,10.6996
2023-04-17T09:31:05.951Z,10.7192
2023-04-17T09:32:07.572Z,10.7507
2023-04-17T09:33:09.181Z,10.7764
2023-04-17T09:34:10.882Z,10.8096
2023-04-17T09:35:12.471Z,10.8578
2023-04-17T09:36:14.100Z,10.8975
2023-04-17T09:37:15.747Z,10.9270
2023-04-17T09:38:17.559Z,10.9217
2023-04-17T09:39:19.024Z,10.9068
2023-04-17T09:40:20.651Z,10.9235
2023-04-17T09:41:22.284Z,10.9508
2023-04-17T09:42:23.914Z,10.9632
2023-04-17T09:43:25.547Z,10.9588
2023-04-17T09:44:27.210Z,10.9470
2023-04-17T09:45:28.814Z,10.9685
2023-04-17T09:46:30.561Z,10.9907
2023-04-17T09:47:32.147Z,11.0168
2023-04-17T09:48:33.719Z,11.0428
2023-04-17T09:49:35.418Z,11.0834
2023-04-17T09:50:38.625Z,11.0961
2023-04-17T09:51:38.613Z,11.0958
2023-04-17T09:52:40.270Z,11.0846
2023-04-17T09:53:41.951Z,11.0707
2023-04-17T09:54:43.595Z,11.0654
2023-04-17T09:55:45.215Z,11.0670
2023-04-17T09:56:47.304Z,11.0746
2023-04-17T09:57:48.465Z,11.1157
2023-04-17T09:58:50.081Z,11.1568
2023-04-17T09:59:51.755Z,11.1931
2023-04-17T10:00:53.446Z,11.2340
2023-04-17T10:01:55.346Z,11.2363
2023-04-17T10:02:56.885Z,11.2196
2023-04-17T10:03:58.377Z,11.1694
2023-04-17T10:04:59.919Z,11.0976
2023-04-17T10:06:01.554Z,11.0282
2023-04-17T10:07:03.162Z,10.9945
2023-04-17T10:08:04.823Z,11.0030
2023-04-17T10:09:06.425Z,11.0108
2023-04-17T10:10:08.124Z,11.0102
2023-04-17T10:11:09.727Z,11.0140
2023-04-17T10:12:11.360Z,11.0361
2023-04-17T10:13:12.984Z,11.0273
2023-04-17T10:14:14.866Z,11.0361
2023-04-17T10:15:16.292Z,11.0453
2023-04-17T10:16:17.933Z,11.0507
2023-04-17T10:17:19.551Z,11.0409
2023-04-17T10:18:21.167Z,11.0373
2023-04-17T10:19:23.174Z,11.0152
2023-04-17T10:20:24.493Z,11.0216
2023-04-17T10:21:26.108Z,11.0240
2023-04-17T10:22:27.731Z,11.0300
2023-04-17T10:23:29.375Z,11.0541
2023-04-17T10:24:31.051Z,11.0532
2023-04-17T10:25:32.693Z,11.0289
2023-04-17T10:26:34.291Z,11.0421
2023-04-17T10:27:36.981Z,11.0339
2023-04-17T10:28:37.677Z,11.0322
2023-04-17T10:29:39.322Z,11.0375
2023-04-17T10:30:43.318Z,11.0704
2023-04-17T10:31:42.649Z,11.0874
2023-04-17T10:32:44.351Z,11.1131
2023-04-17T10:33:45.955Z,11.1677
2023-04-17T10:34:47.564Z,11.2074
2023-04-17T10:35:49.279Z,11.2902
2023-04-17T10:36:50.825Z,11.3652
2023-04-17T10:37:52.462Z,11.4440
2023-04-17T10:38:54.076Z,11.5235
2023-04-17T10:39:55.724Z,11.5607
2023-04-17T10:40:58.894Z,11.5752
2023-04-17T10:41:58.990Z,11.5880
2023-04-17T10:43:00.691Z,11.6304
2023-04-17T10:44:02.276Z,11.6601
2023-04-17T10:45:03.897Z,11.7140
2023-04-17T10:46:05.613Z,11.7808
2023-04-17T10:47:07.198Z,11.8132
2023-04-17T10:48:08.910Z,11.8258
2023-04-17T10:49:10.851Z,11.7897
2023-04-17T10:50:12.196Z,11.7192
2023-04-17T10:51:13.790Z,11.6758
2023-04-17T10:52:15.367Z,11.6357
2023-04-17T10:53:17.023Z,11.6067
2023-04-17T10:54:18.752Z,11.5961
2023-04-17T10:55:20.315Z,11.6192
2023-04-17T10:56:21.972Z,11.6420
2023-04-17T10:57:23.552Z,11.6398
2023-04-17T10:58:31.453Z,11.6796
2023-04-17T10:59:26.852Z,11.6600
2023-04-17T11:00:28.487Z,11.6448
2023-04-17T11:01:30.247Z,11.6170
2023-04-17T11:02:31.908Z,11.5642
2023-04-17T11:03:33.505Z,11.5060
2023-04-17T11:04:35.050Z,11.4805
2023-04-17T11:05:36.597Z,11.4514
2023-04-17T11:06:38.254Z,11.4243
2023-04-17T11:07:39.894Z,11.4323
2023-04-17T11:08:41.511Z,11.4653
2023-04-17T11:09:43.111Z,11.5172
2023-04-17T11:10:44.792Z,11.5619
2023-04-17T11:11:46.494Z,11.6366
2023-04-17T11:12:48.095Z,11.7155
2023-04-17T11:13:49.715Z,11.7682
2023-04-17T11:14:51.346Z,11.8467
2023-04-17T11:15:53.002Z,11.9390
2023-04-17T11:16:54.655Z,12.0229
2023-04-17T11:17:56.299Z,12.1142
2023-04-17T11:18:57.911Z,12.1793
2023-04-17T11:19:59.566Z,12.2352
2023-04-17T11:21:01.199Z,12.2822
2023-04-17T11:22:02.960Z,12.2877
2023-04-17T11:23:04.501Z,12.3287
2023-04-17T11:24:06.115Z,12.3691
2023-04-17T11:25:07.809Z,12.3663
2023-04-17T11:26:09.421Z,12.3550
2023-04-17T11:27:11.097Z,12.3610
2023-04-17T11:28:12.706Z,12.3898
2023-04-17T11:29:14.592Z,12.4313
2023-04-17T11:30:15.988Z,12.4557
2023-04-17T11:31:19.775Z,12.4487
2023-04-17T11:32:19.344Z,12.3960
2023-04-17T11:33:20.916Z,12.3787
2023-04-17T11:34:22.656Z,12.3587
2023-04-17T11:35:24.186Z,12.3327
2023-04-17T11:36:25.770Z,12.2931
2023-04-17T11:37:27.459Z,12.2633
2023-04-17T11:38:29.061Z,12.2679
2023-04-17T11:39:30.733Z,12.2684
2023-04-17T11:40:32.357Z,12.2932
2023-04-17T11:41:34.026Z,12.3610
2023-04-17T11:42:35.667Z,12.4352
2023-04-17T11:43:37.301Z,12.4892
2023-04-17T11:44:38.888Z,12.5327
2023-04-17T11:45:40.575Z,12.6034
2023-04-17T11:46:42.385Z,12.6859
2023-04-17T11:47:43.975Z,12.7439
2023-04-17T11:48:45.446Z,12.7811
2023-04-17T11:49:47.182Z,12.8194
2023-04-17T11:50:48.946Z,12.8464
2023-04-17T11:51:50.405Z,12.8445
2023-04-17T11:52:52.099Z,12.8353
2023-04-17T11:53:53.686Z,12.8307
2023-04-17T11:54:55.426Z,12.7963
2023-04-17T11:55:56.948Z,12.7565
2023-04-17T11:56:58.604Z,12.7584
2023-04-17T11:58:00.287Z,12.8076
2023-04-17T11:59:01.924Z,12.8302
2023-04-17T12:00:03.525Z,12.8223
2023-04-17T12:01:05.169Z,12.7903
2023-04-17T12:02:07.182Z,12.7624
2023-04-17T12:03:08.634Z,12.7434
2023-04-17T12:04:10.293Z,12.6942
2023-04-17T12:05:11.920Z,12.6331
2023-04-17T12:06:13.366Z,12.5818
2023-04-17T12:07:15.007Z,12.5646
2023-04-17T12:08:16.689Z,12.5551
2023-04-17T12:09:18.289Z,12.5532
2023-04-17T12:10:19.913Z,12.5698
2023-04-17T12:11:21.565Z,12.5836
2023-04-17T12:12:23.271Z,12.6074
2023-04-17T12:13:24.955Z,12.6034
2023-04-17T12:14:26.673Z,12.6062
2023-04-17T12:15:28.166Z,12.5975
2023-04-17T12:16:29.848Z,12.5953
2023-04-17T12:17:31.507Z,12.6186
2023-04-17T12:18:33.192Z,12.6728
2023-04-17T12:19:34.741Z,12.7300
2023-04-17T12:20:36.362Z,12.7683
2023-04-17T12:21:38.016Z,12.7848
2023-04-17T12:22:39.689Z,12.7994
2023-04-17T12:23:41.382Z,12.7973
2023-04-17T12:24:42.937Z,12.7840
2023-04-17T12:25:44.581Z,12.8033
2023-04-17T12:26:46.234Z,12.8182
2023-04-17T12:27:49.371Z,12.8194
2023-04-17T12:28:49.544Z,12.8230
2023-04-17T12:29:51.121Z,12.8381
2023-04-17T12:30:52.810Z,12.8455
2023-04-17T12:31:54.465Z,12.8207
2023-04-17T12:32:56.095Z,12.7988
2023-04-17T12:33:57.771Z,12.8308
2023-04-17T12:34:59.329Z,12.8446
2023-04-17T12:36:01.049Z,12.8701
2023-04-17T12:37:02.592Z,12.8897
2023-04-17T12:38:04.227Z,12.9057
2023-04-17T12:39:05.883Z,12.8912
2023-04-17T12:40:07.584Z,12.9141
2023-04-17T12:41:09.168Z,12.9053